sensor_id;sensor_type;location;lat;lon;timestamp;P1;durP1;ratioP1;P2;durP2;ratioP2
6133;SDS011;3098;42.678;23.364;2023-04-03T00:01:01;13.47;;;6.30;;
6133;SDS011;3098;42.678;23.364;2023-04-03T00:03:30;17.50;;;6.45;;
6133;SDS011;3098;42.678;23.364;2023-04-03T00:05:57;13.32;;;5.93;;
6133;SDS011;3098;42.678;23.364;2023-04-03T00:08:24;14.60;;;6.03;;
6133;SDS011;3098;42.678;23.364;2023-04-03T00:10:51;10.38;;;5.50;;
6133;SDS011;3098;42.678;23.364;2023-04-03T00:13:18;6.68;;;3.58;;
6133;SDS011;3098;42.678;23.364;2023-04-03T00:15:45;11.20;;;3.35;;
6133;SDS011;3098;42.678;23.364;2023-04-03T00:18:12;9.18;;;4.07;;
6133;SDS011;3098;42.678;23.364;2023-04-03T00:20:41;8.82;;;3.95;;
6133;SDS011;3098;42.678;23.364;2023-04-03T00:23:08;7.13;;;4.55;;
6133;SDS011;3098;42.678;23.364;2023-04-03T00:25:35;9.02;;;4.78;;
6133;SDS011;3098;42.678;23.364;2023-04-03T00:28:03;8.73;;;4.20;;
6133;SDS011;3098;42.678;23.364;2023-04-03T00:30:31;10.15;;;4.10;;
6133;SDS011;3098;42.678;23.364;2023-04-03T00:32:59;7.55;;;4.47;;
6133;SDS011;3098;42.678;23.364;2023-04-03T00:35:26;10.75;;;5.07;;
6133;SDS011;3098;42.678;23.364;2023-04-03T00:37:55;8.38;;;4.80;;
6133;SDS011;3098;42.678;23.364;2023-04-03T00:40:23;11.68;;;5.32;;
6133;SDS011;3098;42.678;23.364;2023-04-03T00:42:54;14.18;;;4.43;;
6133;SDS011;3098;42.678;23.364;2023-04-03T00:45:25;9.70;;;5.05;;
6133;SDS011;3098;42.678;23.364;2023-04-03T00:47:54;12.52;;;5.38;;
6133;SDS011;3098;42.678;23.364;2023-04-03T00:50:24;8.85;;;4.50;;
6133;SDS011;3098;42.678;23.364;2023-04-03T00:52:52;10.85;;;4.65;;
6133;SDS011;3098;42.678;23.364;2023-04-03T00:55:21;12.98;;;4.30;;
6133;SDS011;3098;42.678;23.364;2023-04-03T00:57:49;10.32;;;5.00;;
6133;SDS011;3098;42.678;23.364;2023-04-03T01:00:19;9.30;;;4.30;;
6133;SDS011;3098;42.678;23.364;2023-04-03T01:02:48;12.52;;;4.78;;
6133;SDS011;3098;42.678;23.364;2023-04-03T01:05:16;13.43;;;5.25;;
6133;SDS011;3098;42.678;23.364;2023-04-03T01:07:45;10.48;;;5.63;;
6133;SDS011;3098;42.678;23.364;2023-04-03T01:10:16;12.30;;;4.78;;
6133;SDS011;3098;42.678;23.364;2023-04-03T01:12:45;10.63;;;4.57;;
6133;SDS011;3098;42.678;23.364;2023-04-03T01:15:15;11.15;;;5.78;;
6133;SDS011;3098;42.678;23.364;2023-04-03T01:17:44;8.30;;;4.50;;
6133;SDS011;3098;42.678;23.364;2023-04-03T01:20:35;12.52;;;5.53;;
6133;SDS011;3098;42.678;23.364;2023-04-03T01:23:40;11.98;;;5.68;;
6133;SDS011;3098;42.678;23.364;2023-04-03T01:26:20;14.65;;;5.07;;
6133;SDS011;3098;42.678;23.364;2023-04-03T01:28:47;10.53;;;5.07;;
6133;SDS011;3098;42.678;23.364;2023-04-03T01:31:15;14.17;;;5.50;;
6133;SDS011;3098;42.678;23.364;2023-04-03T01:33:50;8.83;;;5.00;;
6133;SDS011;3098;42.678;23.364;2023-04-03T01:36:18;15.25;;;5.38;;
6133;SDS011;3098;42.678;23.364;2023-04-03T01:38:47;14.20;;;5.75;;
6133;SDS011;3098;42.678;23.364;2023-04-03T01:41:15;15.43;;;7.07;;
6133;SDS011;3098;42.678;23.364;2023-04-03T01:43:42;12.55;;;6.13;;
6133;SDS011;3098;42.678;23.364;2023-04-03T01:46:09;17.73;;;7.05;;
6133;SDS011;3098;42.678;23.364;2023-04-03T01:48:37;16.95;;;6.95;;
6133;SDS011;3098;42.678;23.364;2023-04-03T01:51:05;14.73;;;5.70;;
6133;SDS011;3098;42.678;23.364;2023-04-03T01:53:32;11.57;;;5.97;;
6133;SDS011;3098;42.678;23.364;2023-04-03T01:55:59;16.98;;;6.80;;
6133;SDS011;3098;42.678;23.364;2023-04-03T01:58:26;27.30;;;10.40;;
6133;SDS011;3098;42.678;23.364;2023-04-03T02:00:53;28.90;;;11.05;;
6133;SDS011;3098;42.678;23.364;2023-04-03T02:03:20;28.13;;;11.27;;
6133;SDS011;3098;42.678;23.364;2023-04-03T02:05:48;21.50;;;10.70;;
6133;SDS011;3098;42.678;23.364;2023-04-03T02:08:17;26.00;;;11.13;;
6133;SDS011;3098;42.678;23.364;2023-04-03T02:10:46;29.70;;;10.90;;
6133;SDS011;3098;42.678;23.364;2023-04-03T02:13:14;22.13;;;10.83;;
6133;SDS011;3098;42.678;23.364;2023-04-03T02:15:41;21.80;;;9.60;;
6133;SDS011;3098;42.678;23.364;2023-04-03T02:18:08;17.33;;;8.70;;
6133;SDS011;3098;42.678;23.364;2023-04-03T02:20:35;28.50;;;9.37;;
6133;SDS011;3098;42.678;23.364;2023-04-03T02:23:02;19.67;;;8.70;;
6133;SDS011;3098;42.678;23.364;2023-04-03T02:25:32;18.20;;;8.00;;
6133;SDS011;3098;42.678;23.364;2023-04-03T02:27:59;20.70;;;8.93;;
6133;SDS011;3098;42.678;23.364;2023-04-03T02:30:26;19.77;;;9.10;;
6133;SDS011;3098;42.678;23.364;2023-04-03T02:32:53;18.03;;;8.07;;
6133;SDS011;3098;42.678;23.364;2023-04-03T02:35:20;23.17;;;8.67;;
6133;SDS011;3098;42.678;23.364;2023-04-03T02:37:47;18.80;;;8.30;;
6133;SDS011;3098;42.678;23.364;2023-04-03T02:40:14;14.27;;;7.27;;
6133;SDS011;3098;42.678;23.364;2023-04-03T02:42:43;15.13;;;7.60;;
6133;SDS011;3098;42.678;23.364;2023-04-03T02:45:10;17.07;;;8.27;;
6133;SDS011;3098;42.678;23.364;2023-04-03T02:47:37;20.57;;;7.93;;
6133;SDS011;3098;42.678;23.364;2023-04-03T02:50:04;15.30;;;7.50;;
6133;SDS011;3098;42.678;23.364;2023-04-03T02:52:32;17.73;;;7.63;;
6133;SDS011;3098;42.678;23.364;2023-04-03T02:54:59;15.00;;;6.37;;
6133;SDS011;3098;42.678;23.364;2023-04-03T02:57:26;10.97;;;5.97;;
6133;SDS011;3098;42.678;23.364;2023-04-03T02:59:54;10.70;;;6.03;;
6133;SDS011;3098;42.678;23.364;2023-04-03T03:02:21;11.63;;;5.27;;
6133;SDS011;3098;42.678;23.364;2023-04-03T03:04:48;8.48;;;4.70;;
6133;SDS011;3098;42.678;23.364;2023-04-03T03:07:16;15.70;;;4.63;;
6133;SDS011;3098;42.678;23.364;2023-04-03T03:09:43;11.57;;;4.20;;
6133;SDS011;3098;42.678;23.364;2023-04-03T03:12:10;9.67;;;5.03;;
6133;SDS011;3098;42.678;23.364;2023-04-03T03:14:37;14.70;;;6.27;;
6133;SDS011;3098;42.678;23.364;2023-04-03T03:17:05;10.33;;;5.23;;
6133;SDS011;3098;42.678;23.364;2023-04-03T03:19:32;15.53;;;5.57;;
6133;SDS011;3098;42.678;23.364;2023-04-03T03:21:59;12.33;;;6.63;;
6133;SDS011;3098;42.678;23.364;2023-04-03T03:24:26;14.97;;;6.40;;
6133;SDS011;3098;42.678;23.364;2023-04-03T03:26:53;17.27;;;6.90;;
6133;SDS011;3098;42.678;23.364;2023-04-03T03:29:21;12.53;;;6.00;;
6133;SDS011;3098;42.678;23.364;2023-04-03T03:31:48;11.47;;;5.90;;
6133;SDS011;3098;42.678;23.364;2023-04-03T03:34:16;8.90;;;4.77;;
6133;SDS011;3098;42.678;23.364;2023-04-03T03:36:43;17.33;;;5.60;;
6133;SDS011;3098;42.678;23.364;2023-04-03T03:39:11;19.63;;;6.00;;
6133;SDS011;3098;42.678;23.364;2023-04-03T03:41:38;14.83;;;5.73;;
6133;SDS011;3098;42.678;23.364;2023-04-03T03:44:05;13.50;;;5.47;;
6133;SDS011;3098;42.678;23.364;2023-04-03T03:46:32;8.57;;;4.70;;
6133;SDS011;3098;42.678;23.364;2023-04-03T03:48:59;9.03;;;5.00;;
6133;SDS011;3098;42.678;23.364;2023-04-03T03:51:28;8.63;;;4.77;;
6133;SDS011;3098;42.678;23.364;2023-04-03T03:53:55;9.40;;;5.17;;
6133;SDS011;3098;42.678;23.364;2023-04-03T03:56:23;8.07;;;5.03;;
6133;SDS011;3098;42.678;23.364;2023-04-03T03:58:50;15.37;;;5.93;;
6133;SDS011;3098;42.678;23.364;2023-04-03T04:01:17;12.63;;;6.43;;
6133;SDS011;3098;42.678;23.364;2023-04-03T04:03:44;23.20;;;7.93;;
6133;SDS011;3098;42.678;23.364;2023-04-03T04:06:11;17.60;;;7.50;;
6133;SDS011;3098;42.678;23.364;2023-04-03T04:08:40;17.27;;;7.33;;
6133;SDS011;3098;42.678;23.364;2023-04-03T04:11:07;17.13;;;7.27;;
6133;SDS011;3098;42.678;23.364;2023-04-03T04:13:34;15.30;;;7.73;;
6133;SDS011;3098;42.678;23.364;2023-04-03T04:16:02;17.00;;;5.30;;
6133;SDS011;3098;42.678;23.364;2023-04-03T04:18:29;8.83;;;4.40;;
6133;SDS011;3098;42.678;23.364;2023-04-03T04:20:56;12.70;;;5.53;;
6133;SDS011;3098;42.678;23.364;2023-04-03T04:23:22;14.60;;;6.90;;
6133;SDS011;3098;42.678;23.364;2023-04-03T04:25:51;9.73;;;6.10;;
6133;SDS011;3098;42.678;23.364;2023-04-03T04:28:18;23.17;;;5.73;;
6133;SDS011;3098;42.678;23.364;2023-04-03T04:30:45;17.47;;;6.10;;
6133;SDS011;3098;42.678;23.364;2023-04-03T04:33:12;10.33;;;5.63;;
6133;SDS011;3098;42.678;23.364;2023-04-03T04:35:41;14.47;;;6.23;;
6133;SDS011;3098;42.678;23.364;2023-04-03T04:38:09;16.30;;;6.27;;
6133;SDS011;3098;42.678;23.364;2023-04-03T04:40:36;19.90;;;7.30;;
6133;SDS011;3098;42.678;23.364;2023-04-03T04:43:05;10.50;;;5.63;;
6133;SDS011;3098;42.678;23.364;2023-04-03T04:45:32;13.57;;;7.85;;
6133;SDS011;3098;42.678;23.364;2023-04-03T04:48:00;20.33;;;7.40;;
6133;SDS011;3098;42.678;23.364;2023-04-03T04:50:27;17.38;;;6.85;;
6133;SDS011;3098;42.678;23.364;2023-04-03T04:52:54;23.05;;;8.07;;
6133;SDS011;3098;42.678;23.364;2023-04-03T04:55:21;19.80;;;7.93;;
6133;SDS011;3098;42.678;23.364;2023-04-03T04:57:51;20.35;;;8.38;;
6133;SDS011;3098;42.678;23.364;2023-04-03T05:00:22;19.70;;;7.63;;
6133;SDS011;3098;42.678;23.364;2023-04-03T05:02:52;13.95;;;6.72;;
6133;SDS011;3098;42.678;23.364;2023-04-03T05:05:19;44.15;;;16.35;;
6133;SDS011;3098;42.678;23.364;2023-04-03T05:07:46;28.42;;;9.18;;
6133;SDS011;3098;42.678;23.364;2023-04-03T05:10:16;20.75;;;8.70;;
6133;SDS011;3098;42.678;23.364;2023-04-03T05:12:46;35.72;;;9.15;;
6133;SDS011;3098;42.678;23.364;2023-04-03T05:15:13;21.90;;;7.78;;
6133;SDS011;3098;42.678;23.364;2023-04-03T05:18:03;16.95;;;6.85;;
6133;SDS011;3098;42.678;23.364;2023-04-03T05:20:32;19.17;;;6.00;;
6133;SDS011;3098;42.678;23.364;2023-04-03T05:23:00;10.00;;;5.15;;
6133;SDS011;3098;42.678;23.364;2023-04-03T05:25:26;13.55;;;5.43;;
6133;SDS011;3098;42.678;23.364;2023-04-03T05:27:57;13.90;;;5.38;;
6133;SDS011;3098;42.678;23.364;2023-04-03T05:30:27;18.15;;;4.50;;
6133;SDS011;3098;42.678;23.364;2023-04-03T05:32:59;13.05;;;5.82;;
6133;SDS011;3098;42.678;23.364;2023-04-03T05:35:31;17.65;;;4.68;;
6133;SDS011;3098;42.678;23.364;2023-04-03T05:37:59;20.08;;;5.28;;
6133;SDS011;3098;42.678;23.364;2023-04-03T05:40:26;27.80;;;6.30;;
6133;SDS011;3098;42.678;23.364;2023-04-03T05:42:56;25.42;;;6.35;;
6133;SDS011;3098;42.678;23.364;2023-04-03T05:45:26;19.05;;;7.60;;
6133;SDS011;3098;42.678;23.364;2023-04-03T05:47:52;22.67;;;8.85;;
6133;SDS011;3098;42.678;23.364;2023-04-03T05:50:21;21.52;;;8.55;;
6133;SDS011;3098;42.678;23.364;2023-04-03T05:52:52;22.38;;;8.77;;
6133;SDS011;3098;42.678;23.364;2023-04-03T05:55:23;19.77;;;7.80;;
6133;SDS011;3098;42.678;23.364;2023-04-03T05:57:54;26.25;;;8.80;;
6133;SDS011;3098;42.678;23.364;2023-04-03T06:00:24;22.45;;;9.13;;
6133;SDS011;3098;42.678;23.364;2023-04-03T06:02:52;24.17;;;9.15;;
6133;SDS011;3098;42.678;23.364;2023-04-03T06:05:24;19.27;;;8.93;;
6133;SDS011;3098;42.678;23.364;2023-04-03T06:07:51;22.05;;;8.10;;
6133;SDS011;3098;42.678;23.364;2023-04-03T06:10:22;15.50;;;7.28;;
6133;SDS011;3098;42.678;23.364;2023-04-03T06:12:49;22.52;;;9.15;;
6133;SDS011;3098;42.678;23.364;2023-04-03T06:15:16;19.13;;;8.82;;
6133;SDS011;3098;42.678;23.364;2023-04-03T06:17:43;27.92;;;9.63;;
6133;SDS011;3098;42.678;23.364;2023-04-03T06:20:11;27.40;;;11.05;;
6133;SDS011;3098;42.678;23.364;2023-04-03T06:22:40;23.00;;;10.27;;
6133;SDS011;3098;42.678;23.364;2023-04-03T06:25:08;39.65;;;11.48;;
6133;SDS011;3098;42.678;23.364;2023-04-03T06:27:36;30.65;;;10.48;;
6133;SDS011;3098;42.678;23.364;2023-04-03T06:30:03;28.60;;;10.15;;
6133;SDS011;3098;42.678;23.364;2023-04-03T06:32:31;20.83;;;10.55;;
6133;SDS011;3098;42.678;23.364;2023-04-03T06:34:58;23.35;;;11.55;;
6133;SDS011;3098;42.678;23.364;2023-04-03T06:37:34;35.30;;;13.50;;
6133;SDS011;3098;42.678;23.364;2023-04-03T06:40:06;30.88;;;12.45;;
6133;SDS011;3098;42.678;23.364;2023-04-03T06:42:40;31.48;;;11.77;;
6133;SDS011;3098;42.678;23.364;2023-04-03T06:45:20;27.23;;;11.48;;
6133;SDS011;3098;42.678;23.364;2023-04-03T06:47:49;29.80;;;11.32;;
6133;SDS011;3098;42.678;23.364;2023-04-03T06:50:17;27.98;;;12.13;;
6133;SDS011;3098;42.678;23.364;2023-04-03T06:52:44;26.42;;;10.02;;
6133;SDS011;3098;42.678;23.364;2023-04-03T06:55:16;25.00;;;11.60;;
6133;SDS011;3098;42.678;23.364;2023-04-03T06:57:43;24.90;;;11.43;;
6133;SDS011;3098;42.678;23.364;2023-04-03T07:00:13;26.85;;;10.43;;
6133;SDS011;3098;42.678;23.364;2023-04-03T07:02:41;29.05;;;12.52;;
6133;SDS011;3098;42.678;23.364;2023-04-03T07:05:11;29.35;;;11.93;;
6133;SDS011;3098;42.678;23.364;2023-04-03T07:07:41;30.75;;;11.52;;
6133;SDS011;3098;42.678;23.364;2023-04-03T07:10:11;23.20;;;11.77;;
6133;SDS011;3098;42.678;23.364;2023-04-03T07:12:42;34.67;;;12.32;;
6133;SDS011;3098;42.678;23.364;2023-04-03T07:15:10;27.48;;;12.57;;
6133;SDS011;3098;42.678;23.364;2023-04-03T07:17:40;29.30;;;12.00;;
6133;SDS011;3098;42.678;23.364;2023-04-03T07:20:11;23.55;;;11.43;;
6133;SDS011;3098;42.678;23.364;2023-04-03T07:22:40;26.73;;;12.07;;
6133;SDS011;3098;42.678;23.364;2023-04-03T07:25:07;22.30;;;10.68;;
6133;SDS011;3098;42.678;23.364;2023-04-03T07:27:35;33.63;;;11.07;;
6133;SDS011;3098;42.678;23.364;2023-04-03T07:30:04;30.13;;;11.52;;
6133;SDS011;3098;42.678;23.364;2023-04-03T07:32:32;30.45;;;11.65;;
6133;SDS011;3098;42.678;23.364;2023-04-03T07:35:00;20.83;;;9.80;;
6133;SDS011;3098;42.678;23.364;2023-04-03T07:37:28;20.92;;;9.98;;
6133;SDS011;3098;42.678;23.364;2023-04-03T07:39:54;25.98;;;11.93;;
6133;SDS011;3098;42.678;23.364;2023-04-03T07:42:23;32.78;;;14.32;;
6133;SDS011;3098;42.678;23.364;2023-04-03T07:44:53;32.95;;;15.95;;
6133;SDS011;3098;42.678;23.364;2023-04-03T07:47:22;35.42;;;15.73;;
6133;SDS011;3098;42.678;23.364;2023-04-03T07:49:49;32.13;;;15.20;;
6133;SDS011;3098;42.678;23.364;2023-04-03T07:52:16;33.88;;;13.82;;
6133;SDS011;3098;42.678;23.364;2023-04-03T07:54:43;32.83;;;13.05;;
6133;SDS011;3098;42.678;23.364;2023-04-03T07:57:10;29.27;;;12.10;;
6133;SDS011;3098;42.678;23.364;2023-04-03T07:59:37;26.23;;;11.75;;
6133;SDS011;3098;42.678;23.364;2023-04-03T08:02:07;24.27;;;11.57;;
6133;SDS011;3098;42.678;23.364;2023-04-03T08:04:37;35.58;;;12.15;;
6133;SDS011;3098;42.678;23.364;2023-04-03T08:07:04;30.00;;;12.18;;
6133;SDS011;3098;42.678;23.364;2023-04-03T08:09:31;26.73;;;11.95;;
6133;SDS011;3098;42.678;23.364;2023-04-03T08:11:58;23.85;;;12.65;;
6133;SDS011;3098;42.678;23.364;2023-04-03T08:14:26;25.13;;;11.00;;
6133;SDS011;3098;42.678;23.364;2023-04-03T08:16:53;27.17;;;12.65;;
6133;SDS011;3098;42.678;23.364;2023-04-03T08:19:20;29.38;;;11.57;;
6133;SDS011;3098;42.678;23.364;2023-04-03T08:21:48;30.70;;;12.43;;
6133;SDS011;3098;42.678;23.364;2023-04-03T08:24:15;33.28;;;13.35;;
6133;SDS011;3098;42.678;23.364;2023-04-03T08:26:42;32.20;;;12.63;;
6133;SDS011;3098;42.678;23.364;2023-04-03T08:29:09;33.25;;;11.23;;
6133;SDS011;3098;42.678;23.364;2023-04-03T08:31:36;27.65;;;10.88;;
6133;SDS011;3098;42.678;23.364;2023-04-03T08:34:04;25.65;;;11.57;;
6133;SDS011;3098;42.678;23.364;2023-04-03T08:36:31;22.48;;;10.50;;
6133;SDS011;3098;42.678;23.364;2023-04-03T08:39:00;24.42;;;10.82;;
6133;SDS011;3098;42.678;23.364;2023-04-03T08:41:29;33.35;;;12.00;;
6133;SDS011;3098;42.678;23.364;2023-04-03T08:44:01;28.25;;;12.40;;
6133;SDS011;3098;42.678;23.364;2023-04-03T08:46:43;22.63;;;11.43;;
6133;SDS011;3098;42.678;23.364;2023-04-03T08:49:23;24.42;;;10.68;;
6133;SDS011;3098;42.678;23.364;2023-04-03T08:51:54;28.30;;;11.18;;
6133;SDS011;3098;42.678;23.364;2023-04-03T08:54:29;25.80;;;10.90;;
6133;SDS011;3098;42.678;23.364;2023-04-03T08:57:00;21.85;;;10.88;;
6133;SDS011;3098;42.678;23.364;2023-04-03T08:59:32;20.33;;;10.98;;
6133;SDS011;3098;42.678;23.364;2023-04-03T09:02:04;24.10;;;10.02;;
6133;SDS011;3098;42.678;23.364;2023-04-03T09:04:49;20.98;;;9.70;;
6133;SDS011;3098;42.678;23.364;2023-04-03T09:07:19;19.27;;;10.02;;
6133;SDS011;3098;42.678;23.364;2023-04-03T09:09:53;25.05;;;12.50;;
6133;SDS011;3098;42.678;23.364;2023-04-03T09:12:23;27.15;;;11.68;;
6133;SDS011;3098;42.678;23.364;2023-04-03T09:14:57;22.85;;;10.77;;
6133;SDS011;3098;42.678;23.364;2023-04-03T09:17:41;30.08;;;10.75;;
6133;SDS011;3098;42.678;23.364;2023-04-03T09:20:17;30.08;;;10.38;;
6133;SDS011;3098;42.678;23.364;2023-04-03T09:22:53;31.77;;;10.35;;
6133;SDS011;3098;42.678;23.364;2023-04-03T09:25:23;20.45;;;10.30;;
6133;SDS011;3098;42.678;23.364;2023-04-03T09:27:51;18.77;;;9.88;;
6133;SDS011;3098;42.678;23.364;2023-04-03T09:30:20;20.13;;;10.18;;
6133;SDS011;3098;42.678;23.364;2023-04-03T09:32:49;26.13;;;11.35;;
6133;SDS011;3098;42.678;23.364;2023-04-03T09:35:20;36.22;;;10.60;;
6133;SDS011;3098;42.678;23.364;2023-04-03T09:39:33;27.00;;;10.27;;
6133;SDS011;3098;42.678;23.364;2023-04-03T09:41:06;21.73;;;9.77;;
6133;SDS011;3098;42.678;23.364;2023-04-03T09:43:41;22.23;;;10.23;;
6133;SDS011;3098;42.678;23.364;2023-04-03T09:46:25;26.50;;;9.68;;
6133;SDS011;3098;42.678;23.364;2023-04-03T09:48:56;25.67;;;13.55;;
6133;SDS011;3098;42.678;23.364;2023-04-03T09:51:25;23.90;;;9.48;;
6133;SDS011;3098;42.678;23.364;2023-04-03T09:53:54;20.83;;;10.00;;
6133;SDS011;3098;42.678;23.364;2023-04-03T09:56:25;13.75;;;8.07;;
6133;SDS011;3098;42.678;23.364;2023-04-03T10:02:02;16.20;;;8.40;;
6133;SDS011;3098;42.678;23.364;2023-04-03T10:04:49;13.43;;;8.02;;
6133;SDS011;3098;42.678;23.364;2023-04-03T10:07:26;21.45;;;7.93;;
6133;SDS011;3098;42.678;23.364;2023-04-03T10:09:59;15.15;;;7.18;;
6133;SDS011;3098;42.678;23.364;2023-04-03T10:12:31;18.27;;;8.07;;
6133;SDS011;3098;42.678;23.364;2023-04-03T10:14:59;17.65;;;7.85;;
6133;SDS011;3098;42.678;23.364;2023-04-03T10:17:41;17.05;;;7.10;;
6133;SDS011;3098;42.678;23.364;2023-04-03T10:20:22;16.80;;;7.85;;
6133;SDS011;3098;42.678;23.364;2023-04-03T10:23:08;20.10;;;7.50;;
6133;SDS011;3098;42.678;23.364;2023-04-03T10:25:47;14.82;;;7.28;;
6133;SDS011;3098;42.678;23.364;2023-04-03T10:28:28;13.30;;;7.60;;
6133;SDS011;3098;42.678;23.364;2023-04-03T10:31:02;10.73;;;6.93;;
6133;SDS011;3098;42.678;23.364;2023-04-03T10:33:39;13.80;;;7.25;;
6133;SDS011;3098;42.678;23.364;2023-04-03T10:36:23;19.15;;;7.30;;
6133;SDS011;3098;42.678;23.364;2023-04-03T10:38:58;17.33;;;7.43;;
6133;SDS011;3098;42.678;23.364;2023-04-03T10:41:39;13.35;;;7.40;;
6133;SDS011;3098;42.678;23.364;2023-04-03T10:44:18;12.13;;;6.68;;
6133;SDS011;3098;42.678;23.364;2023-04-03T10:46:55;19.02;;;7.35;;
6133;SDS011;3098;42.678;23.364;2023-04-03T10:49:32;9.95;;;5.45;;
6133;SDS011;3098;42.678;23.364;2023-04-03T10:52:13;11.70;;;6.05;;
6133;SDS011;3098;42.678;23.364;2023-04-03T10:54:51;10.23;;;4.90;;
6133;SDS011;3098;42.678;23.364;2023-04-03T10:57:27;9.82;;;4.45;;
6133;SDS011;3098;42.678;23.364;2023-04-03T10:59:58;9.38;;;4.15;;
6133;SDS011;3098;42.678;23.364;2023-04-03T11:02:28;10.05;;;4.28;;
6133;SDS011;3098;42.678;23.364;2023-04-03T11:04:59;15.30;;;4.50;;
6133;SDS011;3098;42.678;23.364;2023-04-03T11:07:28;4.43;;;2.80;;
6133;SDS011;3098;42.678;23.364;2023-04-03T11:10:02;5.95;;;3.95;;
6133;SDS011;3098;42.678;23.364;2023-04-03T11:12:40;5.82;;;3.40;;
6133;SDS011;3098;42.678;23.364;2023-04-03T11:15:13;6.05;;;3.17;;
6133;SDS011;3098;42.678;23.364;2023-04-03T11:17:46;6.95;;;2.72;;
6133;SDS011;3098;42.678;23.364;2023-04-03T11:20:17;7.53;;;2.58;;
6133;SDS011;3098;42.678;23.364;2023-04-03T11:22:53;5.88;;;2.50;;
6133;SDS011;3098;42.678;23.364;2023-04-03T11:25:25;6.85;;;2.65;;
6133;SDS011;3098;42.678;23.364;2023-04-03T11:27:56;6.03;;;2.47;;
6133;SDS011;3098;42.678;23.364;2023-04-03T11:30:30;4.75;;;2.53;;
6133;SDS011;3098;42.678;23.364;2023-04-03T11:35:58;4.68;;;2.47;;
6133;SDS011;3098;42.678;23.364;2023-04-03T11:38:30;5.50;;;3.17;;
6133;SDS011;3098;42.678;23.364;2023-04-03T11:41:01;7.32;;;3.08;;
6133;SDS011;3098;42.678;23.364;2023-04-03T11:43:30;4.50;;;2.65;;
6133;SDS011;3098;42.678;23.364;2023-04-03T11:46:00;6.70;;;3.22;;
6133;SDS011;3098;42.678;23.364;2023-04-03T11:51:41;5.57;;;3.20;;
6133;SDS011;3098;42.678;23.364;2023-04-03T12:00:46;4.57;;;2.75;;
6133;SDS011;3098;42.678;23.364;2023-04-03T12:09:31;5.80;;;2.90;;
6133;SDS011;3098;42.678;23.364;2023-04-03T12:12:28;5.47;;;3.08;;
6133;SDS011;3098;42.678;23.364;2023-04-03T12:21:11;5.05;;;2.60;;
6133;SDS011;3098;42.678;23.364;2023-04-03T12:26:28;4.47;;;2.80;;
6133;SDS011;3098;42.678;23.364;2023-04-03T12:28:58;6.05;;;2.55;;
6133;SDS011;3098;42.678;23.364;2023-04-03T12:31:39;9.70;;;3.45;;
6133;SDS011;3098;42.678;23.364;2023-04-03T12:34:16;4.28;;;3.10;;
6133;SDS011;3098;42.678;23.364;2023-04-03T12:36:55;4.78;;;2.90;;
6133;SDS011;3098;42.678;23.364;2023-04-03T12:39:41;4.93;;;3.17;;
6133;SDS011;3098;42.678;23.364;2023-04-03T12:42:21;3.78;;;3.00;;
6133;SDS011;3098;42.678;23.364;2023-04-03T12:45:00;4.70;;;2.85;;
6133;SDS011;3098;42.678;23.364;2023-04-03T12:47:34;11.88;;;3.60;;
6133;SDS011;3098;42.678;23.364;2023-04-03T12:50:03;8.65;;;3.50;;
6133;SDS011;3098;42.678;23.364;2023-04-03T12:52:44;6.53;;;3.10;;
6133;SDS011;3098;42.678;23.364;2023-04-03T12:55:17;5.20;;;3.10;;
6133;SDS011;3098;42.678;23.364;2023-04-03T12:57:46;4.30;;;3.00;;
6133;SDS011;3098;42.678;23.364;2023-04-03T13:00:20;9.15;;;3.90;;
6133;SDS011;3098;42.678;23.364;2023-04-03T13:02:52;10.07;;;3.88;;
6133;SDS011;3098;42.678;23.364;2023-04-03T13:05:21;7.07;;;4.07;;
6133;SDS011;3098;42.678;23.364;2023-04-03T13:07:49;5.38;;;3.75;;
6133;SDS011;3098;42.678;23.364;2023-04-03T13:10:23;7.25;;;3.88;;
6133;SDS011;3098;42.678;23.364;2023-04-03T13:12:51;8.43;;;3.92;;
6133;SDS011;3098;42.678;23.364;2023-04-03T13:15:20;9.25;;;4.78;;
6133;SDS011;3098;42.678;23.364;2023-04-03T13:17:50;9.50;;;5.25;;
6133;SDS011;3098;42.678;23.364;2023-04-03T13:20:19;8.77;;;4.55;;
6133;SDS011;3098;42.678;23.364;2023-04-03T13:22:53;6.10;;;4.70;;
6133;SDS011;3098;42.678;23.364;2023-04-03T13:25:25;7.22;;;4.68;;
6133;SDS011;3098;42.678;23.364;2023-04-03T13:27:56;11.80;;;5.75;;
6133;SDS011;3098;42.678;23.364;2023-04-03T13:30:27;12.20;;;5.70;;
6133;SDS011;3098;42.678;23.364;2023-04-03T13:32:58;8.63;;;5.10;;
6133;SDS011;3098;42.678;23.364;2023-04-03T13:35:30;8.85;;;5.07;;
6133;SDS011;3098;42.678;23.364;2023-04-03T13:38:05;7.25;;;4.20;;
6133;SDS011;3098;42.678;23.364;2023-04-03T13:40:49;10.45;;;5.20;;
6133;SDS011;3098;42.678;23.364;2023-04-03T13:43:18;7.53;;;4.75;;
6133;SDS011;3098;42.678;23.364;2023-04-03T13:45:57;9.57;;;5.20;;
6133;SDS011;3098;42.678;23.364;2023-04-03T13:51:55;6.70;;;4.22;;
6133;SDS011;3098;42.678;23.364;2023-04-03T13:54:24;7.40;;;4.00;;
6133;SDS011;3098;42.678;23.364;2023-04-03T13:56:58;8.85;;;4.93;;
6133;SDS011;3098;42.678;23.364;2023-04-03T13:59:28;12.23;;;5.03;;
6133;SDS011;3098;42.678;23.364;2023-04-03T14:02:09;13.75;;;5.90;;
6133;SDS011;3098;42.678;23.364;2023-04-03T14:04:50;10.02;;;5.97;;
6133;SDS011;3098;42.678;23.364;2023-04-03T14:07:21;11.15;;;6.43;;
6133;SDS011;3098;42.678;23.364;2023-04-03T14:09:49;11.13;;;6.40;;
6133;SDS011;3098;42.678;23.364;2023-04-03T14:12:21;10.55;;;6.65;;
6133;SDS011;3098;42.678;23.364;2023-04-03T14:14:53;10.75;;;6.50;;
6133;SDS011;3098;42.678;23.364;2023-04-03T14:17:22;11.27;;;7.22;;
6133;SDS011;3098;42.678;23.364;2023-04-03T14:19:52;13.57;;;6.53;;
6133;SDS011;3098;42.678;23.364;2023-04-03T14:22:22;14.77;;;6.72;;
6133;SDS011;3098;42.678;23.364;2023-04-03T14:24:51;10.98;;;6.38;;
6133;SDS011;3098;42.678;23.364;2023-04-03T14:27:22;14.88;;;7.07;;
6133;SDS011;3098;42.678;23.364;2023-04-03T14:29:58;8.15;;;4.93;;
6133;SDS011;3098;42.678;23.364;2023-04-03T14:32:28;13.20;;;5.20;;
6133;SDS011;3098;42.678;23.364;2023-04-03T14:34:56;10.27;;;4.70;;
6133;SDS011;3098;42.678;23.364;2023-04-03T14:37:25;9.70;;;5.13;;
6133;SDS011;3098;42.678;23.364;2023-04-03T14:39:55;7.13;;;4.30;;
6133;SDS011;3098;42.678;23.364;2023-04-03T14:42:27;7.53;;;4.07;;
6133;SDS011;3098;42.678;23.364;2023-04-03T14:44:56;10.00;;;4.47;;
6133;SDS011;3098;42.678;23.364;2023-04-03T14:47:26;15.20;;;4.60;;
6133;SDS011;3098;42.678;23.364;2023-04-03T14:49:57;7.95;;;4.15;;
6133;SDS011;3098;42.678;23.364;2023-04-03T14:52:27;8.30;;;4.35;;
6133;SDS011;3098;42.678;23.364;2023-04-03T14:54:57;6.40;;;3.42;;
6133;SDS011;3098;42.678;23.364;2023-04-03T14:57:28;5.35;;;3.20;;
6133;SDS011;3098;42.678;23.364;2023-04-03T14:59:57;4.13;;;2.97;;
6133;SDS011;3098;42.678;23.364;2023-04-03T15:02:27;4.28;;;2.83;;
6133;SDS011;3098;42.678;23.364;2023-04-03T15:04:56;5.75;;;3.42;;
6133;SDS011;3098;42.678;23.364;2023-04-03T15:07:26;4.90;;;3.00;;
6133;SDS011;3098;42.678;23.364;2023-04-03T15:09:56;4.15;;;2.88;;
6133;SDS011;3098;42.678;23.364;2023-04-03T15:12:24;4.68;;;3.03;;
6133;SDS011;3098;42.678;23.364;2023-04-03T15:14:57;6.45;;;3.17;;
6133;SDS011;3098;42.678;23.364;2023-04-03T15:17:25;5.70;;;3.17;;
6133;SDS011;3098;42.678;23.364;2023-04-03T15:19:52;4.60;;;2.63;;
6133;SDS011;3098;42.678;23.364;2023-04-03T15:22:21;4.88;;;2.72;;
6133;SDS011;3098;42.678;23.364;2023-04-03T15:24:51;3.97;;;2.88;;
6133;SDS011;3098;42.678;23.364;2023-04-03T15:27:19;4.55;;;3.17;;
6133;SDS011;3098;42.678;23.364;2023-04-03T15:29:51;5.50;;;3.28;;
6133;SDS011;3098;42.678;23.364;2023-04-03T15:32:21;5.47;;;3.40;;
6133;SDS011;3098;42.678;23.364;2023-04-03T15:34:48;5.10;;;2.75;;
6133;SDS011;3098;42.678;23.364;2023-04-03T15:37:15;5.00;;;3.33;;
6133;SDS011;3098;42.678;23.364;2023-04-03T15:39:43;5.63;;;3.65;;
6133;SDS011;3098;42.678;23.364;2023-04-03T15:42:10;6.28;;;3.10;;